createdAt,value
2023-01-01T00:01:26.555Z,97701.81
2023-01-01T00:03:55.766Z,97547.91
2023-01-01T00:06:23.296Z,97689.22
2023-01-01T00:09:10.260Z,97718.19
2023-01-01T00:11:36.904Z,97726.38
2023-01-01T00:14:10.160Z,97713.69
2023-01-01T00:16:39.114Z,97611.66
2023-01-01T00:19:05.815Z,97567.19
2023-01-01T00:21:32.465Z,97632.16
2023-01-01T00:23:59.331Z,97733.84
2023-01-01T00:26:29.504Z,97749.38
2023-01-01T00:29:02.151Z,97737.50
2023-01-01T00:31:29.013Z,97700.41
2023-01-01T00:33:56.510Z,97580.69
2023-01-01T00:36:25.382Z,97656.72
2023-01-01T00:38:52.017Z,97669.09
2023-01-01T00:41:18.793Z,97726.50
2023-01-01T00:43:45.703Z,97730.94
2023-01-01T00:46:12.998Z,97727.47
2023-01-01T00:48:40.231Z,97730.25
2023-01-01T00:51:07.514Z,97732.19
2023-01-01T00:53:34.183Z,97603.63
2023-01-01T00:56:00.811Z,97645.84
2023-01-01T00:58:28.470Z,97706.75
2023-01-01T01:00:55.272Z,97730.44
2023-01-01T01:03:31.056Z,97723.03
2023-01-01T01:06:11.196Z,97720.19
2023-01-01T01:08:40.501Z,97586.81
2023-01-01T01:11:13.158Z,97582.31
2023-01-01T01:13:40.952Z,97634.97
2023-01-01T01:16:12.989Z,97712.13
2023-01-01T01:18:40.135Z,97669.47
2023-01-01T01:21:07.023Z,97713.69
2023-01-01T01:23:33.773Z,97665.22
2023-01-01T01:26:30.635Z,97722.97
2023-01-01T01:28:58.234Z,97720.94
2023-01-01T01:31:28.034Z,97728.25
2023-01-01T01:33:54.924Z,97713.03
2023-01-01T01:36:21.801Z,97683.91
2023-01-01T01:38:48.469Z,97735.06
2023-01-01T01:41:27.252Z,97745.00
2023-01-01T01:44:27.329Z,97613.06
2023-01-01T01:46:54.016Z,97743.22
2023-01-01T01:49:30.492Z,97672.66
2023-01-01T01:51:58.893Z,97492.06
2023-01-01T01:54:29.109Z,97715.59
2023-01-01T01:56:59.709Z,97658.94
2023-01-01T01:59:32.083Z,97702.50
2023-01-01T02:01:59.645Z,97719.53
2023-01-01T02:04:30.358Z,97752.81
2023-01-01T02:06:57.227Z,97705.94
2023-01-01T02:09:23.822Z,97598.66
2023-01-01T02:11:50.403Z,97740.06
2023-01-01T02:14:17.095Z,97587.84
2023-01-01T02:16:53.699Z,97598.13
2023-01-01T02:19:35.405Z,97754.06
2023-01-01T02:22:06.840Z,97747.03
2023-01-01T02:25:02.376Z,97747.03
2023-01-01T02:27:44.206Z,97612.34
2023-01-01T02:30:12.047Z,97619.22
2023-01-01T02:32:47.237Z,97741.81
2023-01-01T02:35:38.562Z,97741.66
2023-01-01T02:38:11.240Z,97737.38
2023-01-01T02:40:44.247Z,97731.19
2023-01-01T02:43:10.980Z,97734.75
2023-01-01T02:45:37.567Z,97733.94
2023-01-01T02:48:28.624Z,97746.22
2023-01-01T02:51:01.154Z,97634.63
2023-01-01T02:53:36.001Z,97744.44
2023-01-01T02:56:16.467Z,97743.59
2023-01-01T02:59:14.056Z,97735.72
2023-01-01T03:01:46.614Z,97710.16
2023-01-01T03:04:22.783Z,97729.13
2023-01-01T03:07:02.715Z,97729.44
2023-01-01T03:09:29.411Z,97736.59
2023-01-01T03:12:09.912Z,97540.16
2023-01-01T03:14:47.241Z,97610.06
2023-01-01T03:17:33.150Z,97726.19
2023-01-01T03:20:05.294Z,97722.03
2023-01-01T03:22:34.948Z,97724.66
2023-01-01T03:25:09.193Z,97713.25
2023-01-01T03:27:49.401Z,97745.59
2023-01-01T03:30:19.860Z,97733.50
2023-01-01T03:33:07.934Z,97731.19
2023-01-01T03:35:43.880Z,97730.78
2023-01-01T03:38:42.043Z,97737.81
2023-01-01T03:41:37.858Z,97752.97
2023-01-01T03:44:10.787Z,97761.41
2023-01-01T03:46:38.023Z,97669.81
2023-01-01T03:49:09.194Z,97760.03
2023-01-01T03:51:47.246Z,97672.72
2023-01-01T03:54:23.102Z,97751.63
2023-01-01T03:56:59.321Z,97522.50
2023-01-01T03:59:33.939Z,97753.41
2023-01-01T04:02:04.151Z,97637.94
2023-01-01T04:04:31.884Z,97558.09
2023-01-01T04:07:09.350Z,97656.22
2023-01-01T04:09:47.058Z,97770.09
2023-01-01T04:12:15.007Z,97632.06
2023-01-01T04:14:43.019Z,97771.34
2023-01-01T04:17:11.725Z,97773.97
2023-01-01T04:19:38.717Z,97634.97
2023-01-01T04:22:09.535Z,97782.09
2023-01-01T04:24:36.141Z,97782.25
2023-01-01T04:27:02.728Z,97785.81
2023-01-01T04:29:29.348Z,97646.91
2023-01-01T04:31:55.967Z,97670.69
2023-01-01T04:34:22.564Z,97635.09
2023-01-01T04:36:49.149Z,97618.72
2023-01-01T04:39:15.747Z,97755.56
2023-01-01T04:41:42.309Z,97767.81
2023-01-01T04:44:08.859Z,97789.84
2023-01-01T04:46:35.462Z,97782.41
2023-01-01T04:49:02.057Z,97783.66
2023-01-01T04:51:28.630Z,97766.03
2023-01-01T04:53:55.261Z,97723.41
2023-01-01T04:56:23.151Z,97788.63
2023-01-01T04:58:49.930Z,97782.16
2023-01-01T05:01:20.809Z,97772.13
2023-01-01T05:03:48.375Z,97726.28
2023-01-01T05:06:16.143Z,97786.56
2023-01-01T05:08:45.953Z,97789.72
2023-01-01T05:11:21.666Z,97807.22
2023-01-01T05:13:50.013Z,97566.28
2023-01-01T05:16:22.573Z,97787.25
2023-01-01T05:18:49.923Z,97773.88
2023-01-01T05:21:19.300Z,97759.56
2023-01-01T05:23:46.380Z,97806.63
2023-01-01T05:26:22.326Z,97798.91
2023-01-01T05:28:50.220Z,97795.75
2023-01-01T05:31:20.363Z,97808.81
2023-01-01T05:33:47.288Z,97811.56
2023-01-01T05:36:26.991Z,97829.03
2023-01-01T05:38:54.354Z,97824.50
2023-01-01T05:41:21.993Z,97826.16
2023-01-01T05:43:49.131Z,97829.47
2023-01-01T05:46:21.846Z,97731.66
2023-01-01T05:48:48.752Z,97846.81
2023-01-01T05:51:23.908Z,97798.72
2023-01-01T05:53:51.666Z,97854.81
2023-01-01T05:56:18.706Z,97866.19
2023-01-01T05:58:46.600Z,97868.38
2023-01-01T06:01:17.713Z,97880.66
2023-01-01T06:03:44.931Z,97867.97
2023-01-01T06:06:13.889Z,97878.56
2023-01-01T06:08:40.947Z,97885.69
2023-01-01T06:11:11.457Z,97872.06
2023-01-01T06:13:38.116Z,97885.25
2023-01-01T06:16:05.229Z,97883.19
2023-01-01T06:18:34.377Z,97886.75
2023-01-01T06:21:14.187Z,97886.88
2023-01-01T06:23:41.731Z,97864.50
2023-01-01T06:26:31.107Z,97887.28
2023-01-01T06:28:58.906Z,97886.72
2023-01-01T06:31:26.796Z,97885.88
2023-01-01T06:33:53.615Z,97890.53
2023-01-01T06:36:22.947Z,97874.25
2023-01-01T06:38:52.943Z,97867.34
2023-01-01T06:41:22.205Z,97843.25
2023-01-01T06:43:49.245Z,97869.06
2023-01-01T06:46:28.154Z,97731.25
2023-01-01T06:48:59.825Z,97879.53
2023-01-01T06:51:29.347Z,97886.56
2023-01-01T06:53:59.417Z,97885.53
2023-01-01T06:56:26.258Z,97837.88
2023-01-01T06:58:52.878Z,97890.69
2023-01-01T07:01:22.532Z,97895.78
2023-01-01T07:04:04.015Z,97891.38
2023-01-01T07:06:32.709Z,97901.56
2023-01-01T07:08:59.395Z,97897.03
2023-01-01T07:11:26.699Z,97909.13
2023-01-01T07:13:53.688Z,97818.31
2023-01-01T07:16:20.543Z,97916.97
2023-01-01T07:18:49.072Z,97825.91
2023-01-01T07:21:34.026Z,97932.63
2023-01-01T07:24:03.713Z,97950.88
2023-01-01T07:26:31.584Z,97933.47
2023-01-01T07:29:06.228Z,97785.53
2023-01-01T07:31:37.818Z,97929.34
2023-01-01T07:34:06.188Z,97920.50
2023-01-01T07:36:33.204Z,97859.84
2023-01-01T07:38:59.856Z,97806.31
2023-01-01T07:41:26.514Z,97827.47
2023-01-01T07:43:53.054Z,97827.47
2023-01-01T07:46:19.862Z,97812.56
2023-01-01T07:48:46.743Z,97910.75
2023-01-01T07:51:13.390Z,97947.06
2023-01-01T07:53:40.049Z,97939.81
2023-01-01T07:56:07.389Z,97952.59
2023-01-01T07:58:33.985Z,97953.03
2023-01-01T08:01:00.687Z,97799.59
2023-01-01T08:03:27.846Z,97951.84
2023-01-01T08:05:54.445Z,97950.03
2023-01-01T08:08:21.135Z,97955.97
2023-01-01T08:10:47.769Z,97951.28
2023-01-01T08:13:14.345Z,97954.06
2023-01-01T08:15:41.039Z,97929.19
2023-01-01T08:18:07.910Z,97953.03
2023-01-01T08:20:34.753Z,97932.94
2023-01-01T08:23:07.195Z,97954.16
2023-01-01T08:25:35.057Z,97963.97
2023-01-01T08:28:02.628Z,97963.97
2023-01-01T08:30:29.410Z,97940.72
2023-01-01T08:32:56.036Z,97959.22
2023-01-01T08:35:22.624Z,97874.59
2023-01-01T08:37:49.169Z,97961.19
2023-01-01T08:40:16.565Z,97960.47
2023-01-01T08:42:43.167Z,97965.75
2023-01-01T08:45:10.325Z,97965.75
2023-01-01T08:47:36.948Z,97975.25
2023-01-01T08:50:04.168Z,97963.81
2023-01-01T08:52:31.549Z,97864.22
2023-01-01T08:54:58.182Z,97974.81
2023-01-01T08:57:24.779Z,97976.47
2023-01-01T08:59:51.399Z,97969.31
2023-01-01T09:02:18.100Z,97787.53
2023-01-01T09:04:44.901Z,97977.50
2023-01-01T09:07:11.479Z,97972.94
2023-01-01T09:09:38.224Z,97951.81
2023-01-01T09:12:06.468Z,97981.44
2023-01-01T09:14:34.207Z,97942.81
2023-01-01T09:17:01.347Z,97988.81
2023-01-01T09:19:28.294Z,97972.75
2023-01-01T09:21:55.280Z,97985.50
2023-01-01T09:24:22.100Z,97993.97
2023-01-01T09:26:48.708Z,97989.19
2023-01-01T09:29:18.658Z,97992.28
2023-01-01T09:31:49.243Z,97994.53
2023-01-01T09:34:17.830Z,97988.38
2023-01-01T09:36:44.749Z,97989.44
2023-01-01T09:39:15.705Z,97992.66
2023-01-01T09:42:00.933Z,97984.97
2023-01-01T09:44:57.304Z,97984.28
2023-01-01T09:47:26.368Z,97983.38
2023-01-01T09:49:56.928Z,97969.03
2023-01-01T09:52:28.303Z,97922.72
2023-01-01T09:55:03.182Z,97907.59
2023-01-01T09:57:32.792Z,97841.75
2023-01-01T10:00:00.433Z,97984.75
2023-01-01T10:02:36.957Z,97987.59
2023-01-01T10:05:11.269Z,97831.56
2023-01-01T10:07:43.799Z,97980.09
2023-01-01T10:10:14.586Z,97974.38
2023-01-01T10:12:48.666Z,97980.78
2023-01-01T10:15:23.535Z,97976.84
2023-01-01T10:17:55.861Z,97977.72
2023-01-01T10:20:55.481Z,97942.13
2023-01-01T10:23:32.173Z,97981.75
2023-01-01T10:26:03.432Z,97771.94
2023-01-01T10:28:29.888Z,97981.47
2023-01-01T10:31:15.381Z,97978.56
2023-01-01T10:33:42.807Z,97976.78
2023-01-01T10:36:14.147Z,97971.16
2023-01-01T10:38:41.405Z,97878.41
2023-01-01T10:41:17.068Z,97958.69
2023-01-01T10:43:46.774Z,97957.69
2023-01-01T10:46:27.608Z,97941.88
2023-01-01T10:49:14.477Z,97951.09
2023-01-01T10:51:52.504Z,97911.06
2023-01-01T10:54:32.059Z,97948.44
2023-01-01T10:57:00.054Z,97897.38
2023-01-01T10:59:36.413Z,97946.75
2023-01-01T11:02:17.857Z,97945.38
2023-01-01T11:04:45.286Z,97953.75
2023-01-01T11:07:18.249Z,97895.75
2023-01-01T11:10:02.717Z,97946.75
2023-01-01T11:15:42.909Z,97942.34
2023-01-01T11:18:20.974Z,97948.06
2023-01-01T11:20:55.584Z,97787.25
2023-01-01T11:23:34.201Z,97954.50
2023-01-01T11:26:18.953Z,97944.31
2023-01-01T11:29:22.455Z,97947.72
2023-01-01T11:31:49.451Z,97843.84
2023-01-01T11:34:41.037Z,97753.47
2023-01-01T11:37:33.134Z,97952.03
2023-01-01T11:40:02.042Z,97935.69
2023-01-01T11:42:35.547Z,97947.84
2023-01-01T11:45:11.027Z,97833.53
2023-01-01T11:47:43.368Z,97944.06
2023-01-01T11:50:28.544Z,97941.13
2023-01-01T11:53:00.340Z,97936.66
2023-01-01T11:55:37.782Z,97948.06
2023-01-01T11:58:19.321Z,97939.41
2023-01-01T12:00:49.696Z,97941.31
2023-01-01T12:03:34.680Z,97939.94
2023-01-01T12:06:10.759Z,97919.28
2023-01-01T12:08:41.975Z,97933.25
2023-01-01T12:11:34.916Z,97792.22
2023-01-01T12:14:16.953Z,97828.34
2023-01-01T12:17:09.170Z,97879.94
2023-01-01T12:19:47.827Z,97920.16
2023-01-01T12:22:19.323Z,97835.38
2023-01-01T12:24:48.236Z,97822.88
2023-01-01T12:27:40.956Z,97910.28
2023-01-01T12:30:18.814Z,97894.50
2023-01-01T12:32:51.358Z,97861.88
2023-01-01T12:35:36.676Z,97905.75
2023-01-01T12:38:30.503Z,97904.56
2023-01-01T12:41:13.299Z,97902.50
2023-01-01T12:43:44.073Z,97899.13
2023-01-01T12:46:27.796Z,97904.44
2023-01-01T12:49:03.316Z,97895.25
2023-01-01T12:51:45.015Z,97884.28
2023-01-01T12:54:33.391Z,97893.25
2023-01-01T12:57:05.941Z,97997.13
2023-01-01T12:59:36.186Z,97884.72
2023-01-01T13:02:14.843Z,97848.34
2023-01-01T13:04:45.230Z,97893.53
2023-01-01T13:07:13.237Z,97894.78
2023-01-01T13:09:45.168Z,97930.91
2023-01-01T13:12:16.805Z,97801.03
2023-01-01T13:14:46.860Z,97873.00
2023-01-01T13:17:29.181Z,97858.78
2023-01-01T13:19:59.446Z,97892.78
2023-01-01T13:22:27.162Z,97888.72
2023-01-01T13:25:17.769Z,97891.59
2023-01-01T13:28:00.369Z,97891.13
2023-01-01T13:30:36.339Z,97894.09
2023-01-01T13:33:29.937Z,97890.19
2023-01-01T13:36:09.187Z,97884.16
2023-01-01T13:38:47.885Z,97882.72
2023-01-01T13:41:26.645Z,97888.22
2023-01-01T13:44:11.981Z,97905.50
2023-01-01T13:46:41.662Z,97896.03
2023-01-01T13:49:34.756Z,97720.78
2023-01-01T13:52:23.243Z,97808.72
2023-01-01T13:55:18.863Z,97776.63
2023-01-01T13:58:03.779Z,97891.25
2023-01-01T14:00:36.201Z,97894.72
2023-01-01T14:03:11.417Z,97895.47
2023-01-01T14:05:41.755Z,97895.63
2023-01-01T14:08:28.467Z,97891.53
2023-01-01T14:10:55.163Z,97891.91
2023-01-01T14:13:29.810Z,97848.78
2023-01-01T14:16:00.746Z,97874.25
2023-01-01T14:18:33.731Z,97890.13
2023-01-01T14:21:00.502Z,97775.63
2023-01-01T14:23:36.684Z,97889.13
2023-01-01T14:26:10.773Z,97819.31
2023-01-01T14:28:38.427Z,97779.78
2023-01-01T14:31:11.433Z,97818.84
2023-01-01T14:33:39.281Z,97888.31
2023-01-01T14:36:16.226Z,97772.63
2023-01-01T14:38:46.203Z,97754.88
2023-01-01T14:41:29.262Z,97874.81
2023-01-01T14:44:13.934Z,97882.16
2023-01-01T14:46:43.778Z,97767.00
2023-01-01T14:49:16.818Z,97864.97
2023-01-01T14:51:50.219Z,97878.13
2023-01-01T14:54:22.533Z,97866.75
2023-01-01T14:56:51.334Z,97897.34
2023-01-01T14:59:28.567Z,97821.78
2023-01-01T15:02:22.613Z,97629.38
2023-01-01T15:04:49.695Z,97895.34
2023-01-01T15:07:23.867Z,97901.34
2023-01-01T15:09:52.102Z,97755.50
2023-01-01T15:12:20.061Z,97894.31
2023-01-01T15:14:48.971Z,97839.69
2023-01-01T15:17:26.511Z,97913.28
2023-01-01T15:20:06.977Z,97915.78
2023-01-01T15:22:39.201Z,97871.16
2023-01-01T15:25:12.704Z,97733.72
2023-01-01T15:27:41.896Z,97913.34
2023-01-01T15:30:26.520Z,97808.94
2023-01-01T15:32:53.734Z,97715.47
2023-01-01T15:35:31.136Z,97920.28
2023-01-01T15:38:02.653Z,97807.44
2023-01-01T15:40:31.421Z,97916.81
2023-01-01T15:42:57.934Z,97918.31
2023-01-01T15:45:41.585Z,97913.69
2023-01-01T15:48:11.133Z,97914.03
2023-01-01T15:50:44.028Z,97897.22
2023-01-01T15:53:21.529Z,97915.50
2023-01-01T15:55:56.375Z,97907.59
2023-01-01T15:58:32.512Z,97911.22
2023-01-01T16:01:02.759Z,97914.66
2023-01-01T16:03:31.793Z,97918.13
2023-01-01T16:05:58.896Z,97879.53
2023-01-01T16:08:25.557Z,97883.00
2023-01-01T16:10:52.418Z,97834.38
2023-01-01T16:13:19.568Z,97926.81
2023-01-01T16:18:40.348Z,97803.34
2023-01-01T16:21:07.080Z,97790.56
2023-01-01T16:23:33.725Z,97945.50
2023-01-01T16:26:00.349Z,97789.47
2023-01-01T16:28:28.298Z,97801.31
2023-01-01T16:30:55.551Z,97799.53
2023-01-01T16:33:25.580Z,97910.34
2023-01-01T16:35:52.252Z,97934.88
2023-01-01T16:38:18.911Z,97897.13
2023-01-01T16:40:45.526Z,97925.31
2023-01-01T16:43:18.950Z,97823.00
2023-01-01T16:45:45.774Z,97922.94
2023-01-01T16:48:12.532Z,97926.22
2023-01-01T16:50:39.175Z,97923.91
2023-01-01T16:53:05.870Z,97926.03
2023-01-01T16:55:32.471Z,97923.03
2023-01-01T16:58:29.504Z,97925.94
2023-01-01T17:00:45.987Z,97908.09
2023-01-01T17:03:13.082Z,97920.09
2023-01-01T17:05:44.079Z,97923.06
2023-01-01T17:08:11.663Z,97761.91
2023-01-01T17:10:38.231Z,97924.81
2023-01-01T17:13:04.831Z,97926.25
2023-01-01T17:15:32.402Z,97927.50
2023-01-01T17:17:59.149Z,97887.66
2023-01-01T17:20:26.225Z,97912.75
2023-01-01T17:22:52.864Z,97769.88
2023-01-01T17:25:19.489Z,97927.56
2023-01-01T17:27:46.165Z,97937.72
2023-01-01T17:30:13.781Z,97931.09
2023-01-01T17:32:40.487Z,97939.47
2023-01-01T17:35:07.856Z,97847.03
2023-01-01T17:37:34.569Z,97943.81
2023-01-01T17:40:01.319Z,97939.00
2023-01-01T17:42:28.793Z,97850.41
2023-01-01T17:44:55.432Z,97929.41
2023-01-01T17:47:22.411Z,97850.66
2023-01-01T17:49:51.075Z,97987.25
2023-01-01T17:52:17.813Z,97927.59
2023-01-01T17:54:44.376Z,97929.72
2023-01-01T17:57:10.953Z,97756.59
2023-01-01T17:59:37.557Z,97850.13
2023-01-01T18:02:05.906Z,97816.16
2023-01-01T18:04:32.781Z,97831.19
2023-01-01T18:07:05.959Z,97912.34
2023-01-01T18:09:33.203Z,97921.44
2023-01-01T18:11:59.859Z,97921.03
2023-01-01T18:14:28.461Z,97882.09
2023-01-01T18:16:55.248Z,97910.31
2023-01-01T18:19:21.833Z,97840.44
2023-01-01T18:21:48.426Z,97853.81
2023-01-01T18:24:15.736Z,97899.34
2023-01-01T18:26:42.841Z,97902.25
2023-01-01T18:29:09.624Z,97889.44
2023-01-01T18:31:36.331Z,97637.16
2023-01-01T18:34:04.319Z,97616.41
2023-01-01T18:36:32.855Z,97878.06
2023-01-01T18:39:09.998Z,97752.06
2023-01-01T18:41:49.093Z,97843.72
2023-01-01T18:44:25.076Z,97911.34
2023-01-01T18:46:57.722Z,97909.84
2023-01-01T18:49:25.488Z,97902.25
2023-01-01T18:51:57.038Z,97912.34
2023-01-01T18:54:24.562Z,97907.22
2023-01-01T18:57:03.986Z,97852.34
2023-01-01T18:59:30.550Z,97909.88
2023-01-01T19:01:57.771Z,97906.59
2023-01-01T19:04:24.373Z,97894.75
2023-01-01T19:06:51.167Z,97902.75
2023-01-01T19:09:23.484Z,97816.66
2023-01-01T19:11:52.569Z,97921.94
2023-01-01T19:14:24.189Z,97924.31
2023-01-01T19:16:55.045Z,97871.84
2023-01-01T19:19:26.300Z,97935.50
2023-01-01T19:22:02.007Z,97920.50
2023-01-01T19:24:31.735Z,97926.28
2023-01-01T19:27:12.167Z,97929.34
2023-01-01T19:29:43.557Z,97922.84
2023-01-01T19:32:10.384Z,97905.94
2023-01-01T19:34:38.571Z,97788.22
2023-01-01T19:37:06.334Z,97915.03
2023-01-01T19:39:34.697Z,97770.63
2023-01-01T19:42:05.059Z,97866.44
2023-01-01T19:44:32.176Z,97807.34
2023-01-01T19:47:00.910Z,97632.72
2023-01-01T19:49:28.101Z,97770.31
2023-01-01T19:51:54.819Z,97588.28
2023-01-01T19:54:21.441Z,97872.31
2023-01-01T19:56:49.973Z,97830.75
2023-01-01T19:59:16.569Z,97706.31
2023-01-01T20:01:43.378Z,97796.75
2023-01-01T20:04:10.586Z,97699.44
2023-01-01T20:06:37.833Z,97852.78
2023-01-01T20:09:04.530Z,97872.06
2023-01-01T20:11:32.041Z,97870.00
2023-01-01T20:13:58.936Z,97867.38
2023-01-01T20:16:25.908Z,97758.47
2023-01-01T20:18:52.607Z,97861.59
2023-01-01T20:21:37.455Z,97809.84
2023-01-01T20:24:04.358Z,97603.38
2023-01-01T20:26:31.059Z,97865.19
2023-01-01T20:29:16.076Z,97861.03
2023-01-01T20:31:43.262Z,97866.41
2023-01-01T20:34:10.381Z,97866.81
2023-01-01T20:36:55.706Z,97868.75
2023-01-01T20:39:22.780Z,97873.69
2023-01-01T20:41:50.053Z,97822.59
2023-01-01T20:44:16.914Z,97712.38
2023-01-01T20:46:45.854Z,97540.69
2023-01-01T20:49:12.505Z,97850.28
2023-01-01T20:51:39.096Z,97865.28
2023-01-01T20:54:06.035Z,97826.69
2023-01-01T20:56:32.688Z,97741.13
2023-01-01T20:59:07.658Z,97843.22
2023-01-01T21:01:44.562Z,97865.13
2023-01-01T21:04:11.391Z,97857.56
2023-01-01T21:06:38.242Z,97859.47
2023-01-01T21:09:05.435Z,97852.75
2023-01-01T21:11:36.205Z,97853.69
2023-01-01T21:14:03.422Z,97749.81
2023-01-01T21:16:36.666Z,97845.41
2023-01-01T21:19:07.227Z,97845.69
2023-01-01T21:21:43.073Z,97845.69
2023-01-01T21:24:24.238Z,97823.09
2023-01-01T21:26:55.062Z,97858.06
2023-01-01T21:29:25.479Z,97778.44
2023-01-01T21:31:57.412Z,97847.75
2023-01-01T21:34:34.452Z,97845.28
2023-01-01T21:37:43.679Z,97800.09
2023-01-01T21:41:12.076Z,97844.56
2023-01-01T21:43:41.972Z,97699.56
2023-01-01T21:46:08.660Z,97836.59
2023-01-01T21:48:36.917Z,97826.28
2023-01-01T21:51:19.736Z,97827.25
2023-01-01T21:53:46.464Z,97836.88
2023-01-01T21:56:28.325Z,97833.44
2023-01-01T21:59:19.499Z,97704.38
2023-01-01T22:01:49.104Z,97839.50
2023-01-01T22:04:19.135Z,97831.78
2023-01-01T22:06:51.667Z,97831.09
2023-01-01T22:09:21.687Z,97824.09
2023-01-01T22:11:52.961Z,97807.00
2023-01-01T22:14:25.455Z,97818.28
2023-01-01T22:16:55.972Z,97815.81
2023-01-01T22:19:24.359Z,97657.81
2023-01-01T22:21:52.499Z,97812.78
2023-01-01T22:24:23.234Z,97813.03
2023-01-01T22:26:49.927Z,97681.63
2023-01-01T22:29:23.102Z,97714.38
2023-01-01T22:32:01.003Z,97806.34
2023-01-01T22:34:27.663Z,97816.97
2023-01-01T22:36:54.889Z,97656.09
2023-01-01T22:39:34.866Z,97813.06
2023-01-01T22:42:03.484Z,97698.19
2023-01-01T22:44:33.496Z,97824.06
2023-01-01T22:47:03.031Z,97773.22
2023-01-01T22:49:40.321Z,97772.22
2023-01-01T22:52:08.207Z,97831.59
2023-01-01T22:54:37.718Z,97819.88
2023-01-01T22:57:05.736Z,97632.69
2023-01-01T22:59:32.292Z,97676.34
2023-01-01T23:02:00.304Z,97707.88
2023-01-01T23:04:27.115Z,97680.41
2023-01-01T23:06:54.322Z,97743.66
2023-01-01T23:09:20.974Z,97820.22
2023-01-01T23:11:47.607Z,97678.34
2023-01-01T23:14:37.074Z,97821.56
2023-01-01T23:17:05.594Z,97826.09
2023-01-01T23:19:32.310Z,97757.75
2023-01-01T23:22:02.828Z,97825.66
2023-01-01T23:24:31.079Z,97699.41
2023-01-01T23:26:58.897Z,97710.25
2023-01-01T23:29:29.337Z,97823.97
2023-01-01T23:31:56.359Z,97827.78
2023-01-01T23:34:23.211Z,97827.06
2023-01-01T23:36:52.218Z,97827.19
2023-01-01T23:39:18.782Z,97672.47
2023-01-01T23:41:46.977Z,97823.44
2023-01-01T23:44:13.549Z,97807.22
2023-01-01T23:46:40.378Z,97665.19
2023-01-01T23:49:07.776Z,97577.47
2023-01-01T23:51:35.138Z,97611.84
2023-01-01T23:54:01.808Z,97804.28
2023-01-01T23:56:28.433Z,97804.28
2023-01-01T23:58:55.006Z,97803.59
